Terminal Aerodrome Forecast
Issued by NWS St Louis, MO

Home | Current Version | Previous Version | Text Only | Print | Product List | Glossary On
Versions: 1 2 3 4 5 6 7 8 9 10 11 12 13 14 15 16 17 18 19 20 21 22 23 24 25
000
FTUS43 KLSX 271700
TAFSTL
TAF
KSTL 271734Z 2718/2824 19015G25KT P6SM BKN250
     FM280100 20012KT P6SM BKN120
     FM280700 24012KT 5SM -SHRA OVC040
     FM281000 30012G20KT P6SM BKN080
     FM282000 30010KT P6SM SKC=

USA.gov is the U.S. government's official web portal to all federal, state and local government web resources and services.